createdAt,value
2023-05-20T00:01:00.207Z,96319.00
2023-05-20T00:06:04.589Z,96314.69
2023-05-20T00:11:07.454Z,96317.38
2023-05-20T00:16:10.380Z,96313.84
2023-05-20T00:21:14.574Z,96311.16
2023-05-20T00:26:17.771Z,96315.75
2023-05-20T00:31:21.791Z,96309.53
2023-05-20T00:36:26.195Z,96306.81
2023-05-20T00:41:29.042Z,96300.59
2023-05-20T00:46:32.077Z,96305.47
2023-05-20T00:51:36.440Z,96293.84
2023-05-20T00:56:39.443Z,96296.53
2023-05-20T01:01:42.844Z,96289.50
2023-05-20T01:06:47.911Z,96287.91
2023-05-20T01:11:54.727Z,96273.53
2023-05-20T01:17:00.045Z,96262.72
2023-05-20T01:22:07.124Z,96253.81
2023-05-20T01:27:13.503Z,96257.63
2023-05-20T01:32:20.070Z,96265.72
2023-05-20T01:37:23.600Z,96264.91
2023-05-20T01:42:28.241Z,96272.19
2023-05-20T01:47:32.896Z,96267.59
2023-05-20T01:52:36.401Z,96267.09
2023-05-20T01:57:40.718Z,96271.66
2023-05-20T02:02:43.726Z,96267.09
2023-05-20T02:07:46.676Z,96270.84
2023-05-20T02:12:50.948Z,96266.53
2023-05-20T02:17:53.963Z,96261.13
2023-05-20T02:22:56.898Z,96256.53
2023-05-20T02:28:01.137Z,96255.97
2023-05-20T02:33:04.508Z,96257.84
2023-05-20T02:38:07.410Z,96258.69
2023-05-20T02:43:11.701Z,96247.31
2023-05-20T02:48:14.573Z,96250.00
2023-05-20T02:53:17.523Z,96247.03
2023-05-20T02:58:27.027Z,96241.88
2023-05-20T03:03:29.968Z,96239.44
2023-05-20T03:08:34.126Z,96234.88
2023-05-20T03:13:38.343Z,96235.13
2023-05-20T03:18:41.928Z,96239.44
2023-05-20T03:23:44.890Z,96232.44
2023-05-20T03:28:49.222Z,96230.00
2023-05-20T03:33:52.413Z,96224.56
2023-05-20T03:38:55.384Z,96226.50
2023-05-20T03:43:59.716Z,96218.38
2023-05-20T03:49:03.045Z,96223.78
2023-05-20T03:54:05.929Z,96218.38
2023-05-20T03:59:10.402Z,96220.25
2023-05-20T04:04:13.988Z,96217.56
2023-05-20T04:09:17.012Z,96215.16
2023-05-20T04:14:21.251Z,96218.66
2023-05-20T04:19:28.409Z,96225.97
2023-05-20T04:24:31.448Z,96218.91
2023-05-20T04:29:35.680Z,96220.56
2023-05-20T04:34:38.976Z,96227.03
2023-05-20T04:39:43.647Z,96227.84
2023-05-20T04:44:48.053Z,96230.56
2023-05-20T04:49:51.318Z,96229.72
2023-05-20T04:54:58.153Z,96232.44
2023-05-20T05:00:02.775Z,96231.63
2023-05-20T05:05:08.105Z,96230.81
2023-05-20T05:10:12.203Z,96228.94
2023-05-20T05:15:16.456Z,96232.72
2023-05-20T05:20:19.516Z,96230.03
2023-05-20T05:25:22.774Z,96223.78
2023-05-20T05:30:27.124Z,96222.69
2023-05-20T05:35:30.009Z,96218.13
2023-05-20T05:40:33.092Z,96212.44
2023-05-20T05:45:37.340Z,96210.53
2023-05-20T05:50:40.301Z,96198.63
2023-05-20T05:55:43.176Z,96206.47
2023-05-20T06:00:47.363Z,96190.78
2023-05-20T06:05:50.222Z,96193.47
2023-05-20T06:10:53.485Z,96190.78
2023-05-20T06:15:57.852Z,96197.81
2023-05-20T06:21:00.923Z,96194.81
2023-05-20T06:26:03.836Z,96185.66
2023-05-20T06:31:08.348Z,96179.97
2023-05-20T06:36:11.483Z,96178.88
2023-05-20T06:41:14.567Z,96186.72
2023-05-20T06:46:18.790Z,96185.63
2023-05-20T06:51:21.720Z,96188.66
2023-05-20T06:56:24.598Z,96184.59
2023-05-20T07:01:31.067Z,96176.16
2023-05-20T07:06:33.948Z,96175.91
2023-05-20T07:11:36.812Z,96175.38
2023-05-20T07:16:41.107Z,96172.34
2023-05-20T07:21:44.112Z,96167.50
2023-05-20T07:26:47.041Z,96173.72
2023-05-20T07:31:51.303Z,96171.81
2023-05-20T07:36:54.323Z,96159.91
2023-05-20T07:41:57.216Z,96161.00
2023-05-20T07:47:01.510Z,96155.31
2023-05-20T07:52:04.543Z,96142.31
2023-05-20T07:57:07.591Z,96135.81
2023-05-20T08:02:11.918Z,96145.53
2023-05-20T08:07:14.805Z,96134.72
2023-05-20T08:12:17.677Z,96132.31
2023-05-20T08:17:21.949Z,96125.00
2023-05-20T08:22:24.904Z,96122.28
2023-05-20T08:27:27.938Z,96123.91
2023-05-20T08:32:33.160Z,96129.03
2023-05-20T08:37:36.214Z,96122.53
2023-05-20T08:42:42.369Z,96131.72
2023-05-20T08:47:46.987Z,96124.94
2023-05-20T08:52:49.995Z,96123.31
2023-05-20T08:57:54.468Z,96121.13
2023-05-20T09:03:01.394Z,96120.03
2023-05-20T09:08:08.107Z,96110.03
2023-05-20T09:13:11.676Z,96111.38
2023-05-20T09:18:16.137Z,96113.81
2023-05-20T09:23:20.609Z,96113.25
2023-05-20T09:28:25.376Z,96106.47
2023-05-20T09:33:31.980Z,96118.09
2023-05-20T09:38:39.039Z,96110.25
2023-05-20T09:43:42.441Z,96110.00
2023-05-20T09:48:46.855Z,96121.09
2023-05-20T09:53:49.727Z,96122.97
2023-05-20T09:58:58.237Z,96110.78
2023-05-20T10:04:03.062Z,96123.47
2023-05-20T10:09:33.800Z,96125.66
2023-05-20T10:14:45.067Z,96119.41
2023-05-20T10:19:50.570Z,96117.75
2023-05-20T10:24:59.845Z,96109.59
2023-05-20T10:30:03.773Z,96104.72
2023-05-20T10:35:10.458Z,96094.94
2023-05-20T10:40:15.172Z,96097.66
2023-05-20T10:45:28.561Z,96095.75
2023-05-20T10:50:37.666Z,96089.25
2023-05-20T10:55:41.735Z,96084.06
2023-05-20T11:00:44.806Z,96078.38
2023-05-20T11:05:49.218Z,96083.81
2023-05-20T11:10:52.964Z,96069.69
2023-05-20T11:15:56.070Z,96078.03
2023-05-20T11:21:00.912Z,96081.56
2023-05-20T11:26:03.832Z,96070.75
2023-05-20T11:31:07.326Z,96059.91
2023-05-20T11:36:23.820Z,96054.75
2023-05-20T11:41:30.690Z,96061.00
2023-05-20T11:46:33.637Z,96047.97
2023-05-20T11:51:38.937Z,96036.28
2023-05-20T11:56:42.433Z,96036.28
2023-05-20T12:01:45.661Z,96036.28
2023-05-20T12:06:50.002Z,96034.94
2023-05-20T12:11:52.911Z,96025.50
2023-05-20T12:16:56.554Z,96030.06
2023-05-20T12:22:00.863Z,96032.47
2023-05-20T12:27:04.110Z,96026.78
2023-05-20T12:32:07.615Z,96020.81
2023-05-20T12:37:11.995Z,96030.03
2023-05-20T12:42:14.878Z,96039.47
2023-05-20T12:47:17.818Z,96034.88
2023-05-20T12:52:22.977Z,96041.63
2023-05-20T12:57:26.221Z,96053.28
2023-05-20T13:02:29.263Z,96051.63
2023-05-20T13:07:33.915Z,96056.53
2023-05-20T13:12:36.853Z,96061.44
2023-05-20T13:17:39.699Z,96060.91
2023-05-20T13:22:43.988Z,96053.88
2023-05-20T13:27:47.196Z,96054.41
2023-05-20T13:32:50.144Z,96054.41
2023-05-20T13:37:54.373Z,96053.88
2023-05-20T13:42:57.352Z,96055.78
2023-05-20T13:48:00.455Z,96056.31
2023-05-20T13:53:04.681Z,96055.47
2023-05-20T13:58:09.078Z,96064.69
2023-05-20T14:03:12.023Z,96055.78
2023-05-20T14:08:16.307Z,96040.91
2023-05-20T14:13:19.184Z,96041.97
2023-05-20T14:18:22.376Z,96044.16
2023-05-20T14:23:26.607Z,96041.75
2023-05-20T14:28:29.500Z,96042.84
2023-05-20T14:33:32.818Z,96048.53
2023-05-20T14:38:37.004Z,96049.63
2023-05-20T14:43:39.825Z,96040.16
2023-05-20T14:48:42.792Z,96036.13
2023-05-20T14:53:47.087Z,96039.94
2023-05-20T14:58:49.981Z,96035.56
2023-05-20T15:03:52.847Z,96034.25
2023-05-20T15:08:57.225Z,96031.81
2023-05-20T15:14:00.530Z,96034.50
2023-05-20T15:19:03.410Z,96041.03
2023-05-20T15:24:07.620Z,96042.41
2023-05-20T15:29:10.594Z,96044.31
2023-05-20T15:34:13.585Z,96038.34
2023-05-20T15:39:17.825Z,96050.56
2023-05-20T15:44:20.754Z,96051.66
2023-05-20T15:49:25.225Z,96055.47
2023-05-20T15:54:29.543Z,96064.69
2023-05-20T15:59:32.464Z,96074.16
2023-05-20T16:04:35.659Z,96083.38
2023-05-20T16:09:39.884Z,96072.00
2023-05-20T16:14:43.582Z,96076.63
2023-05-20T16:19:46.639Z,96084.19
2023-05-20T16:24:52.041Z,96078.78
2023-05-20T16:29:54.995Z,96079.88
2023-05-20T16:34:57.906Z,96078.00
2023-05-20T16:40:02.120Z,96070.97
2023-05-20T16:45:05.876Z,96073.69
2023-05-20T16:50:10.328Z,96063.63
2023-05-20T16:55:14.537Z,96061.75
2023-05-20T17:00:18.505Z,96070.38
2023-05-20T17:05:21.412Z,96052.50
2023-05-20T17:10:25.764Z,96051.63
2023-05-20T17:15:28.632Z,96051.34
2023-05-20T17:20:31.645Z,96043.78
2023-05-20T17:25:35.993Z,96048.94
2023-05-20T17:30:38.828Z,96050.59
2023-05-20T17:35:42.150Z,96057.09
2023-05-20T17:40:46.391Z,96061.19
2023-05-20T17:45:50.208Z,96071.50
2023-05-20T17:50:53.892Z,96067.16
2023-05-20T17:55:58.381Z,96076.66
2023-05-20T18:01:01.437Z,96075.03
2023-05-20T18:06:06.008Z,96074.50
2023-05-20T18:11:10.390Z,96072.09
2023-05-20T18:16:13.469Z,96086.69
2023-05-20T18:21:17.936Z,96090.50
2023-05-20T18:26:22.696Z,96091.59
2023-05-20T18:31:26.355Z,96099.19
2023-05-20T18:36:30.294Z,96091.34
2023-05-20T18:41:45.933Z,96098.38
2023-05-20T18:46:49.310Z,96089.72
2023-05-20T18:51:52.432Z,96087.28
2023-05-20T18:56:56.685Z,96085.69
2023-05-20T19:01:59.856Z,96094.88
2023-05-20T19:07:02.747Z,96083.53
2023-05-20T19:12:07.845Z,96080.03
2023-05-20T19:17:10.814Z,96078.41
2023-05-20T19:22:13.663Z,96081.13
2023-05-20T19:27:17.866Z,96076.75
2023-05-20T19:32:20.948Z,96081.66
2023-05-20T19:37:23.909Z,96089.78
2023-05-20T19:42:28.184Z,96083.53
2023-05-20T19:47:31.420Z,96092.75
2023-05-20T19:52:34.367Z,96097.38
2023-05-20T19:57:38.797Z,96108.47
2023-05-20T20:02:41.723Z,96120.09
2023-05-20T20:07:44.619Z,96105.25
2023-05-20T20:12:49.799Z,96099.84
2023-05-20T20:17:52.829Z,96096.56
2023-05-20T20:22:56.391Z,96092.78
2023-05-20T20:28:00.648Z,96081.44
2023-05-20T20:33:06.279Z,96067.09
2023-05-20T20:38:09.949Z,96075.19
2023-05-20T20:43:20.455Z,96071.72
2023-05-20T20:48:26.910Z,96072.78
2023-05-20T20:53:30.054Z,96079.00
2023-05-20T20:58:34.795Z,96089.81
2023-05-20T21:03:40.166Z,96092.78
2023-05-20T21:08:43.405Z,96092.78
2023-05-20T21:13:47.572Z,96089.31
2023-05-20T21:18:50.466Z,96080.66
2023-05-20T21:23:54.243Z,96069.84
2023-05-20T21:28:58.454Z,96065.22
2023-05-20T21:34:01.317Z,96069.03
2023-05-20T21:39:04.526Z,96062.78
2023-05-20T21:44:08.959Z,96067.69
2023-05-20T21:49:11.809Z,96071.22
2023-05-20T21:54:14.685Z,96061.44
2023-05-20T21:59:19.692Z,96068.78
2023-05-20T22:04:23.139Z,96057.94
2023-05-20T22:09:26.016Z,96047.13
2023-05-20T22:14:30.776Z,96041.19
2023-05-20T22:19:34.150Z,96042.00
2023-05-20T22:24:37.098Z,96043.88
2023-05-20T22:29:41.279Z,96039.56
2023-05-20T22:34:45.278Z,96025.25
2023-05-20T22:39:48.202Z,96029.84
2023-05-20T22:44:52.455Z,96027.94
2023-05-20T22:49:55.368Z,96026.34
2023-05-20T22:54:58.654Z,96024.44
2023-05-20T23:00:02.846Z,96012.00
2023-05-20T23:05:06.253Z,96020.09
2023-05-20T23:10:09.616Z,96018.50
2023-05-20T23:15:13.914Z,96019.59
2023-05-20T23:20:19.000Z,96006.84
2023-05-20T23:25:21.944Z,96009.03
2023-05-20T23:30:27.001Z,95994.69
2023-05-20T23:35:29.938Z,96008.22
2023-05-20T23:40:32.845Z,96002.03
2023-05-20T23:45:37.162Z,95997.66
2023-05-20T23:50:40.496Z,95994.97
2023-05-20T23:55:45.095Z,95990.66
